createdAt,value
2018-01-04T00:00:50.761Z,13.90
2018-01-04T00:03:18.517Z,13.30
2018-01-04T00:05:46.346Z,12.70
2018-01-04T00:08:14.184Z,12.70
2018-01-04T00:10:42.044Z,12.30
2018-01-04T00:13:09.902Z,13.10
2018-01-04T00:15:37.703Z,12.90
2018-01-04T00:18:05.477Z,12.60
2018-01-04T00:20:33.244Z,12.30
2018-01-04T00:23:00.987Z,11.60
2018-01-04T00:25:28.736Z,11.70
2018-01-04T00:27:56.509Z,12.00
2018-01-04T00:30:25.043Z,12.10
2018-01-04T00:32:52.863Z,12.20
2018-01-04T00:35:20.647Z,12.00
2018-01-04T00:37:48.405Z,12.10
2018-01-04T00:40:16.279Z,12.60
2018-01-04T00:42:44.093Z,12.80
2018-01-04T00:45:11.900Z,12.90
2018-01-04T00:47:39.729Z,12.40
2018-01-04T00:50:07.554Z,12.30
2018-01-04T00:52:35.401Z,12.10
2018-01-04T00:55:03.212Z,12.20
2018-01-04T00:57:31.013Z,12.10
2018-01-04T00:59:58.889Z,12.50
2018-01-04T01:02:26.675Z,13.00
2018-01-04T01:04:54.454Z,13.20
2018-01-04T01:07:22.208Z,12.80
2018-01-04T01:09:49.948Z,13.20
2018-01-04T01:12:17.762Z,13.20
2018-01-04T01:14:46.860Z,13.90
2018-01-04T01:17:14.738Z,13.90
2018-01-04T01:19:42.565Z,13.60
2018-01-04T01:22:11.194Z,14.10
2018-01-04T01:24:38.956Z,13.80
2018-01-04T01:27:06.787Z,13.90
2018-01-04T01:29:34.527Z,13.60
2018-01-04T01:32:02.379Z,13.60
2018-01-04T01:34:30.218Z,13.30
2018-01-04T01:36:58.062Z,13.30
2018-01-04T01:39:25.825Z,13.10
2018-01-04T01:41:53.645Z,13.30
2018-01-04T01:44:21.412Z,13.80
2018-01-04T01:46:49.238Z,14.00
2018-01-04T01:49:17.109Z,13.60
2018-01-04T01:51:44.877Z,13.60
2018-01-04T01:54:12.661Z,13.50
2018-01-04T01:56:40.552Z,13.70
2018-01-04T01:59:08.337Z,13.50
2018-01-04T02:01:36.122Z,13.50
2018-01-04T02:04:03.969Z,13.70
2018-01-04T02:06:31.752Z,13.60
2018-01-04T02:09:06.119Z,14.10
2018-01-04T02:11:33.962Z,14.00
2018-01-04T02:14:01.801Z,14.30
2018-01-04T02:16:29.687Z,14.00
2018-01-04T02:19:09.337Z,13.50
2018-01-04T02:21:48.833Z,13.90
2018-01-04T02:24:28.427Z,13.70
2018-01-04T02:27:08.086Z,14.60
2018-01-04T02:29:47.626Z,14.10
2018-01-04T02:32:27.053Z,14.10
2018-01-04T02:35:06.673Z,13.70
2018-01-04T02:37:46.273Z,13.50
2018-01-04T02:40:25.727Z,13.50
2018-01-04T02:43:05.350Z,13.30
2018-01-04T02:45:53.915Z,14.00
2018-01-04T02:48:21.664Z,14.60
2018-01-04T02:50:49.475Z,14.40
2018-01-04T02:53:17.288Z,14.20
2018-01-04T02:55:45.143Z,14.20
2018-01-04T02:58:12.945Z,13.90
2018-01-04T03:00:40.733Z,14.30
2018-01-04T03:03:08.619Z,14.70
2018-01-04T03:05:36.366Z,14.40
2018-01-04T03:08:04.194Z,14.90
2018-01-04T03:10:32.023Z,15.00
2018-01-04T03:12:59.861Z,15.10
2018-01-04T03:15:27.642Z,15.20
2018-01-04T03:17:55.464Z,15.40
2018-01-04T03:20:23.213Z,14.70
2018-01-04T03:22:57.449Z,14.40
2018-01-04T03:25:30.763Z,14.30
2018-01-04T03:28:05.024Z,13.90
2018-01-04T03:30:38.329Z,13.50
2018-01-04T03:33:11.750Z,13.20
2018-01-04T03:35:45.065Z,13.40
2018-01-04T03:38:18.515Z,13.50
2018-01-04T03:40:51.815Z,13.60
2018-01-04T03:43:25.112Z,13.20
2018-01-04T03:45:58.480Z,14.00
2018-01-04T03:48:28.030Z,14.70
2018-01-04T03:51:02.130Z,15.00
2018-01-04T03:53:36.282Z,14.90
2018-01-04T03:56:09.703Z,14.80
2018-01-04T03:58:43.042Z,14.90
2018-01-04T04:01:16.535Z,15.00
2018-01-04T04:03:44.345Z,14.90
2018-01-04T04:06:17.783Z,14.90
2018-01-04T04:08:45.588Z,14.90
2018-01-04T04:11:13.426Z,15.00
2018-01-04T04:13:41.220Z,15.30
2018-01-04T04:16:09.041Z,15.50
2018-01-04T04:18:36.835Z,15.50
2018-01-04T04:21:04.565Z,15.50
2018-01-04T04:23:32.381Z,15.50
2018-01-04T04:26:00.183Z,15.50
2018-01-04T04:28:27.986Z,15.70
2018-01-04T04:30:55.765Z,15.70
2018-01-04T04:33:23.553Z,15.80
2018-01-04T04:35:51.380Z,15.80
2018-01-04T04:38:19.128Z,15.90
2018-01-04T04:40:46.875Z,15.90
2018-01-04T04:43:14.681Z,15.90
2018-01-04T04:45:42.502Z,15.90
2018-01-04T04:48:11.009Z,15.90
2018-01-04T04:50:38.822Z,15.90
2018-01-04T04:53:06.642Z,15.90
2018-01-04T04:55:34.406Z,15.90
2018-01-04T04:58:02.236Z,16.00
2018-01-04T05:00:30.051Z,16.10
2018-01-04T05:02:57.873Z,16.10
2018-01-04T05:05:25.691Z,16.20
2018-01-04T05:07:53.478Z,16.40
2018-01-04T05:10:21.201Z,16.50
2018-01-04T05:12:49.749Z,16.70
2018-01-04T05:15:17.576Z,16.60
2018-01-04T05:17:45.407Z,16.80
2018-01-04T05:20:13.172Z,16.90
2018-01-04T05:22:41.011Z,17.10
2018-01-04T05:25:08.804Z,17.20
2018-01-04T05:27:36.576Z,17.30
2018-01-04T05:30:04.447Z,17.40
2018-01-04T05:32:33.029Z,17.60
2018-01-04T05:35:00.813Z,17.50
2018-01-04T05:37:28.597Z,17.70
2018-01-04T05:39:56.348Z,17.70
2018-01-04T05:42:24.121Z,17.70
2018-01-04T05:44:51.969Z,17.70
2018-01-04T05:47:20.512Z,17.60
2018-01-04T05:49:48.287Z,17.60
2018-01-04T05:52:16.030Z,17.70
2018-01-04T05:54:43.844Z,17.70
2018-01-04T05:57:11.658Z,17.70
2018-01-04T05:59:39.421Z,17.70
2018-01-04T06:02:07.239Z,17.70
2018-01-04T06:04:35.051Z,17.60
2018-01-04T06:07:02.859Z,17.60
2018-01-04T06:09:30.748Z,17.60
2018-01-04T06:11:58.604Z,17.50
2018-01-04T06:14:26.346Z,17.50
2018-01-04T06:16:54.075Z,17.50
2018-01-04T06:19:21.885Z,17.50
2018-01-04T06:21:49.677Z,17.40
2018-01-04T06:24:17.488Z,17.40
2018-01-04T06:26:45.314Z,17.40
2018-01-04T06:29:13.122Z,17.40
2018-01-04T06:31:40.980Z,17.30
2018-01-04T06:34:08.749Z,17.30
2018-01-04T06:36:36.501Z,17.30
2018-01-04T06:39:04.381Z,17.30
2018-01-04T06:41:32.871Z,17.20
2018-01-04T06:44:00.633Z,17.20
2018-01-04T06:46:28.456Z,17.20
2018-01-04T06:48:56.269Z,17.10
2018-01-04T06:51:24.108Z,17.10
2018-01-04T06:53:51.903Z,17.10
2018-01-04T06:56:19.678Z,17.10
2018-01-04T06:58:47.492Z,17.10
2018-01-04T07:01:15.300Z,17.10
2018-01-04T07:03:43.140Z,17.00
2018-01-04T07:06:10.940Z,16.80
2018-01-04T07:08:38.787Z,16.80
2018-01-04T07:11:06.562Z,16.80
2018-01-04T07:13:35.128Z,16.80
2018-01-04T07:16:02.856Z,16.80
2018-01-04T07:18:30.670Z,16.80
2018-01-04T07:20:58.432Z,16.80
2018-01-04T07:23:26.264Z,16.70
2018-01-04T07:25:54.082Z,16.30
2018-01-04T07:28:22.707Z,16.50
2018-01-04T07:30:51.283Z,16.50
2018-01-04T07:33:19.115Z,16.60
2018-01-04T07:35:46.901Z,16.70
2018-01-04T07:38:14.785Z,16.70
2018-01-04T07:40:42.620Z,16.80
2018-01-04T07:43:10.453Z,16.80
2018-01-04T07:45:38.316Z,16.90
2018-01-04T07:48:06.186Z,17.00
2018-01-04T07:50:33.955Z,17.10
2018-01-04T07:53:01.758Z,17.20
2018-01-04T07:55:29.617Z,17.30
2018-01-04T07:57:57.361Z,17.40
2018-01-04T08:00:25.163Z,17.50
2018-01-04T08:02:52.936Z,17.60
2018-01-04T08:05:20.776Z,17.70
2018-01-04T08:07:48.549Z,17.70
2018-01-04T08:10:16.352Z,17.80
2018-01-04T08:12:44.875Z,17.80
2018-01-04T08:15:12.643Z,17.80
2018-01-04T08:17:40.471Z,17.80
2018-01-04T08:20:08.306Z,17.80
2018-01-04T08:22:36.665Z,17.80
2018-01-04T08:25:04.514Z,17.80
2018-01-04T08:27:33.087Z,17.80
2018-01-04T08:30:00.983Z,17.80
2018-01-04T08:32:28.787Z,17.80
2018-01-04T08:34:56.548Z,17.80
2018-01-04T08:37:24.315Z,17.70
2018-01-04T08:39:52.116Z,17.70
2018-01-04T08:42:19.878Z,17.70
2018-01-04T08:44:47.671Z,17.70
2018-01-04T08:47:15.441Z,17.70
2018-01-04T08:49:43.259Z,17.60
2018-01-04T08:52:11.086Z,17.60
2018-01-04T08:54:38.911Z,17.60
2018-01-04T08:57:07.478Z,17.50
2018-01-04T08:59:35.312Z,17.50
2018-01-04T09:02:03.170Z,17.50
2018-01-04T09:04:30.935Z,17.40
2018-01-04T09:06:58.796Z,17.20
2018-01-04T09:09:26.561Z,16.90
2018-01-04T09:11:54.384Z,16.90
2018-01-04T09:14:22.202Z,16.30
2018-01-04T09:16:49.965Z,16.10
2018-01-04T09:19:17.710Z,16.00
2018-01-04T09:21:45.458Z,16.20
2018-01-04T09:24:13.246Z,16.30
2018-01-04T09:26:48.108Z,16.00
2018-01-04T09:29:15.943Z,15.80
2018-01-04T09:31:44.442Z,14.30
2018-01-04T09:34:12.189Z,14.20
2018-01-04T09:36:40.011Z,13.60
2018-01-04T09:39:07.842Z,13.80
2018-01-04T09:41:35.615Z,14.30
2018-01-04T09:44:03.438Z,14.90
2018-01-04T09:46:31.275Z,14.40
2018-01-04T09:48:59.028Z,14.60
2018-01-04T09:51:26.810Z,15.10
2018-01-04T09:53:54.652Z,15.10
2018-01-04T09:56:22.480Z,15.50
2018-01-04T09:58:50.223Z,15.90
2018-01-04T10:01:19.035Z,15.60
2018-01-04T10:03:46.652Z,15.60
2018-01-04T10:06:14.454Z,14.80
2018-01-04T10:08:42.276Z,14.30
2018-01-04T10:11:10.012Z,14.10
2018-01-04T10:13:37.774Z,14.70
2018-01-04T10:16:05.555Z,14.90
2018-01-04T10:18:33.316Z,14.00
2018-01-04T10:21:01.082Z,13.30
2018-01-04T10:23:28.852Z,12.70
2018-01-04T10:25:56.686Z,12.70
2018-01-04T10:28:24.442Z,12.70
2018-01-04T10:30:52.299Z,13.30
2018-01-04T10:33:20.062Z,14.30
2018-01-04T10:35:47.865Z,14.80
2018-01-04T10:38:15.696Z,14.70
2018-01-04T10:40:43.550Z,14.60
2018-01-04T10:43:11.350Z,14.60
2018-01-04T10:45:39.199Z,15.40
2018-01-04T10:48:06.965Z,15.60
2018-01-04T10:50:34.702Z,15.00
2018-01-04T10:53:02.514Z,14.10
2018-01-04T10:55:30.307Z,14.40
2018-01-04T10:57:58.144Z,14.70
2018-01-04T11:00:25.973Z,14.80
2018-01-04T11:02:53.829Z,14.50
2018-01-04T11:05:22.428Z,14.30
2018-01-04T11:07:50.276Z,14.20
2018-01-04T11:10:18.799Z,15.80
2018-01-04T11:12:46.602Z,15.80
2018-01-04T11:15:14.420Z,15.70
2018-01-04T11:17:42.295Z,14.90
2018-01-04T11:20:10.161Z,15.40
2018-01-04T11:22:37.996Z,15.50
2018-01-04T11:25:05.774Z,15.20
2018-01-04T11:27:33.598Z,15.90
2018-01-04T11:30:01.358Z,16.40
2018-01-04T11:32:29.249Z,16.70
2018-01-04T11:34:57.067Z,17.10
2018-01-04T11:37:24.877Z,17.30
2018-01-04T11:39:52.707Z,16.80
2018-01-04T11:42:20.514Z,16.70
2018-01-04T11:44:48.388Z,16.50
2018-01-04T11:47:16.193Z,16.90
2018-01-04T11:49:43.997Z,16.70
2018-01-04T11:52:11.846Z,16.30
2018-01-04T11:54:39.604Z,16.30
2018-01-04T11:57:07.424Z,16.70
2018-01-04T11:59:35.167Z,17.00
2018-01-04T12:02:02.991Z,17.10
2018-01-04T12:04:31.573Z,17.30
2018-01-04T12:06:59.386Z,17.30
2018-01-04T12:09:28.015Z,17.00
2018-01-04T12:11:55.763Z,16.90
2018-01-04T12:14:23.565Z,16.70
2018-01-04T12:16:51.331Z,16.80
2018-01-04T12:19:19.127Z,16.80
2018-01-04T12:21:46.865Z,16.90
2018-01-04T12:24:14.666Z,17.00
2018-01-04T12:26:42.494Z,17.00
2018-01-04T12:29:11.209Z,17.00
2018-01-04T12:31:39.899Z,17.00
2018-01-04T12:34:07.709Z,17.00
2018-01-04T12:36:35.449Z,17.00
2018-01-04T12:39:03.245Z,17.00
2018-01-04T12:41:31.050Z,17.00
2018-01-04T12:43:58.840Z,17.00
2018-01-04T12:46:26.652Z,17.00
2018-01-04T12:48:54.443Z,16.70
2018-01-04T12:51:22.167Z,16.10
2018-01-04T12:53:49.992Z,15.70
2018-01-04T12:56:17.743Z,15.10
2018-01-04T12:58:45.540Z,15.10
2018-01-04T13:01:13.345Z,15.40
2018-01-04T13:03:41.160Z,16.00
2018-01-04T13:06:08.946Z,16.40
2018-01-04T13:08:36.713Z,16.60
2018-01-04T13:11:04.560Z,16.60
2018-01-04T13:13:32.327Z,16.20
2018-01-04T13:16:00.172Z,16.30
2018-01-04T13:18:27.984Z,16.20
2018-01-04T13:20:55.728Z,16.20
2018-01-04T13:23:23.473Z,16.20
2018-01-04T13:25:51.239Z,15.80
2018-01-04T13:28:18.989Z,15.60
2018-01-04T13:30:46.785Z,15.70
2018-01-04T13:33:14.546Z,16.00
2018-01-04T13:35:42.348Z,16.20
2018-01-04T13:38:10.150Z,16.30
2018-01-04T13:40:37.922Z,16.30
2018-01-04T13:43:05.723Z,16.60
2018-01-04T13:45:34.245Z,16.60
2018-01-04T13:48:01.994Z,16.50
2018-01-04T13:50:29.813Z,16.20
2018-01-04T13:52:57.639Z,16.10
2018-01-04T13:55:25.440Z,16.40
2018-01-04T13:57:53.208Z,16.60
2018-01-04T14:00:20.981Z,16.90
2018-01-04T14:02:48.722Z,17.20
2018-01-04T14:05:16.535Z,17.40
2018-01-04T14:07:45.045Z,17.60
2018-01-04T14:10:12.803Z,17.50
2018-01-04T14:12:40.635Z,17.60
2018-01-04T14:15:08.395Z,17.60
2018-01-04T14:17:36.214Z,17.70
2018-01-04T14:20:04.127Z,17.60
2018-01-04T14:22:31.881Z,17.60
2018-01-04T14:24:59.694Z,17.60
2018-01-04T14:27:27.467Z,17.60
2018-01-04T14:29:55.261Z,17.70
2018-01-04T14:32:23.061Z,17.70
2018-01-04T14:34:50.894Z,17.50
2018-01-04T14:37:18.694Z,17.50
2018-01-04T14:39:46.489Z,17.50
2018-01-04T14:42:15.049Z,17.40
2018-01-04T14:44:42.832Z,17.40
2018-01-04T14:47:10.617Z,17.40
2018-01-04T14:49:38.432Z,17.50
2018-01-04T14:52:06.189Z,17.40
2018-01-04T14:54:34.016Z,17.40
2018-01-04T14:57:02.591Z,17.40
2018-01-04T14:59:30.333Z,17.30
2018-01-04T15:01:58.163Z,17.20
2018-01-04T15:04:25.942Z,16.80
2018-01-04T15:06:53.695Z,16.80
2018-01-04T15:09:21.489Z,16.90
2018-01-04T15:11:49.289Z,16.90
2018-01-04T15:14:17.098Z,17.00
2018-01-04T15:16:44.875Z,16.90
2018-01-04T15:19:12.695Z,16.80
2018-01-04T15:21:40.501Z,16.70
2018-01-04T15:24:08.326Z,16.80
2018-01-04T15:26:36.083Z,17.00
2018-01-04T15:29:03.853Z,17.20
2018-01-04T15:31:31.601Z,17.10
2018-01-04T15:33:59.360Z,17.30
2018-01-04T15:36:27.114Z,17.50
2018-01-04T15:38:54.921Z,17.60
2018-01-04T15:41:22.773Z,17.70
2018-01-04T15:43:50.551Z,17.80
2018-01-04T15:46:18.370Z,17.80
2018-01-04T15:48:46.183Z,17.80
2018-01-04T15:51:13.973Z,17.90
2018-01-04T15:53:41.736Z,17.90
2018-01-04T15:56:09.579Z,18.00
2018-01-04T15:58:37.336Z,18.00
2018-01-04T16:01:05.093Z,18.00
2018-01-04T16:03:32.883Z,18.00
2018-01-04T16:06:00.661Z,18.00
2018-01-04T16:08:28.476Z,18.00
2018-01-04T16:10:56.248Z,18.00
2018-01-04T16:13:24.014Z,18.00
2018-01-04T16:15:51.804Z,18.00
2018-01-04T16:18:19.590Z,17.90
2018-01-04T16:20:47.347Z,17.90
2018-01-04T16:23:15.094Z,17.90
2018-01-04T16:25:42.893Z,17.90
2018-01-04T16:28:10.680Z,17.70
2018-01-04T16:30:39.182Z,17.80
2018-01-04T16:33:06.997Z,17.80
2018-01-04T16:35:34.771Z,17.80
2018-01-04T16:38:03.272Z,17.70
2018-01-04T16:40:30.998Z,17.70
2018-01-04T16:42:58.834Z,17.70
2018-01-04T16:45:27.459Z,17.70
2018-01-04T16:47:55.195Z,17.70
2018-01-04T16:50:23.001Z,17.60
2018-01-04T16:52:50.826Z,17.60
2018-01-04T16:55:18.606Z,17.50
2018-01-04T16:57:46.382Z,17.50
2018-01-04T17:00:14.232Z,17.60
2018-01-04T17:23:39.405Z,17.70
2018-01-04T17:26:08.143Z,17.70
2018-01-04T17:28:36.055Z,17.70
2018-01-04T17:31:03.876Z,17.70
2018-01-04T17:33:31.742Z,17.80
2018-01-04T17:36:00.569Z,17.90
2018-01-04T17:38:29.068Z,17.90
2018-01-04T17:40:56.948Z,18.00
2018-01-04T17:43:24.868Z,18.00
2018-01-04T17:45:52.783Z,18.00
2018-01-04T17:48:20.721Z,18.10
2018-01-04T17:50:48.619Z,18.10
2018-01-04T17:53:16.459Z,18.00
2018-01-04T17:55:45.124Z,18.10
2018-01-04T17:58:12.947Z,18.10
2018-01-04T18:00:40.755Z,18.10
2018-01-04T18:03:08.688Z,18.10
2018-01-04T18:05:36.603Z,18.10
2018-01-04T18:08:04.483Z,18.10
2018-01-04T18:10:32.495Z,18.10
2018-01-04T18:13:00.406Z,18.00
2018-01-04T18:15:28.279Z,18.00
2018-01-04T18:17:56.252Z,18.00
2018-01-04T18:20:24.160Z,18.00
2018-01-04T18:22:53.282Z,18.10
2018-01-04T18:25:22.320Z,18.10
2018-01-04T18:27:51.058Z,18.00
2018-01-04T18:30:18.853Z,17.90
2018-01-04T18:32:47.424Z,18.00
2018-01-04T18:35:15.256Z,18.00
2018-01-04T18:37:43.178Z,17.90
2018-01-04T18:40:11.274Z,17.80
2018-01-04T18:42:39.140Z,17.80
2018-01-04T18:45:07.045Z,17.80
2018-01-04T18:47:34.940Z,17.80
2018-01-04T18:50:02.870Z,17.80
2018-01-04T18:52:31.480Z,17.70
2018-01-04T18:54:59.369Z,17.70
2018-01-04T18:57:28.009Z,17.70
2018-01-04T18:59:56.666Z,17.80
2018-01-04T19:02:24.602Z,17.70
2018-01-04T19:04:52.496Z,17.80
2018-01-04T19:07:20.387Z,17.80
2018-01-04T19:09:48.256Z,17.90
2018-01-04T19:12:16.143Z,17.90
2018-01-04T19:14:45.322Z,17.90
2018-01-04T19:17:13.262Z,17.90
2018-01-04T19:19:41.196Z,17.90
2018-01-04T19:22:09.888Z,18.00
2018-01-04T19:24:37.777Z,18.00
2018-01-04T19:27:05.658Z,18.00
2018-01-04T19:29:33.521Z,18.00
2018-01-04T19:32:01.345Z,18.10
2018-01-04T19:34:29.272Z,18.10
2018-01-04T19:36:57.168Z,18.10
2018-01-04T19:39:25.029Z,18.10
2018-01-04T19:41:52.953Z,18.10
2018-01-04T19:44:20.886Z,18.10
2018-01-04T19:46:48.781Z,18.10
2018-01-04T19:49:16.640Z,18.10
2018-01-04T19:51:44.443Z,18.20
2018-01-04T19:54:12.287Z,18.20
2018-01-04T19:56:40.172Z,18.20
2018-01-04T19:59:08.006Z,18.20
2018-01-04T20:01:35.889Z,18.20
2018-01-04T20:04:03.656Z,18.20
2018-01-04T20:06:31.495Z,18.20
2018-01-04T20:08:59.299Z,18.20
2018-01-04T20:11:27.093Z,18.20
2018-01-04T20:13:54.984Z,18.20
2018-01-04T20:16:22.795Z,18.20
2018-01-04T20:18:50.700Z,18.20
2018-01-04T20:21:18.536Z,18.20
2018-01-04T20:23:46.466Z,18.20
2018-01-04T20:26:14.300Z,18.10
2018-01-04T20:28:42.171Z,18.10
2018-01-04T20:31:10.082Z,18.00
2018-01-04T20:33:37.969Z,18.00
2018-01-04T20:36:05.914Z,18.00
2018-01-04T20:38:33.658Z,18.00
2018-01-04T20:41:01.533Z,18.00
2018-01-04T20:43:29.358Z,18.00
2018-01-04T20:45:57.281Z,18.00
2018-01-04T20:48:25.171Z,18.00
2018-01-04T20:50:53.122Z,18.00
2018-01-04T20:53:21.041Z,18.00
2018-01-04T20:55:48.950Z,18.00
2018-01-04T20:58:16.877Z,18.00
2018-01-04T21:00:44.785Z,18.00
2018-01-04T21:03:12.628Z,18.00
2018-01-04T21:05:40.514Z,17.90
2018-01-04T21:08:08.329Z,17.90
2018-01-04T21:10:36.211Z,18.00
2018-01-04T21:13:04.869Z,18.00
2018-01-04T21:15:32.689Z,17.90
2018-01-04T21:18:01.201Z,18.00
2018-01-04T21:20:29.110Z,18.00
2018-01-04T21:22:57.727Z,18.00
2018-01-04T21:25:25.626Z,18.00
2018-01-04T21:27:56.354Z,18.10
2018-01-04T21:30:24.985Z,18.10
2018-01-04T21:32:52.870Z,18.10
2018-01-04T21:35:21.591Z,18.20
2018-01-04T21:37:50.352Z,18.10
2018-01-04T21:40:19.249Z,18.10
2018-01-04T21:42:47.150Z,18.20
2018-01-04T21:45:15.061Z,18.10
2018-01-04T21:47:42.913Z,18.10
2018-01-04T21:50:10.757Z,18.10
2018-01-04T21:52:38.630Z,18.10
2018-01-04T21:55:07.218Z,18.20
2018-01-04T21:57:35.110Z,18.20
2018-01-04T22:00:03.004Z,18.20
2018-01-04T22:02:30.882Z,18.10
2018-01-04T22:04:58.789Z,18.10
2018-01-04T22:07:26.658Z,18.10
2018-01-04T22:09:54.526Z,18.10
2018-01-04T22:12:22.416Z,18.00
2018-01-04T22:14:50.350Z,18.00
2018-01-04T22:17:18.215Z,18.10
2018-01-04T22:19:46.117Z,18.10
2018-01-04T22:22:14.043Z,18.10
2018-01-04T22:24:41.910Z,18.00
2018-01-04T22:27:09.796Z,18.00
2018-01-04T22:29:37.681Z,18.00
2018-01-04T22:32:05.636Z,18.00
2018-01-04T22:34:33.467Z,18.00
2018-01-04T22:37:02.189Z,18.00
2018-01-04T22:39:30.117Z,18.00
2018-01-04T22:41:58.012Z,17.90
2018-01-04T22:44:25.896Z,18.00
2018-01-04T22:46:53.775Z,18.00
2018-01-04T22:49:21.664Z,18.00
2018-01-04T22:51:49.544Z,18.00
2018-01-04T22:54:17.442Z,17.90
2018-01-04T22:56:46.051Z,17.70
2018-01-04T22:59:13.999Z,17.70
2018-01-04T23:01:42.032Z,17.80
2018-01-04T23:04:09.971Z,17.80
2018-01-04T23:09:11.936Z,17.40
2018-01-04T23:11:39.831Z,17.50
2018-01-04T23:14:07.774Z,17.60
2018-01-04T23:16:35.689Z,17.60
2018-01-04T23:19:04.163Z,17.60
2018-01-04T23:21:32.079Z,17.60
2018-01-04T23:24:00.059Z,17.60
2018-01-04T23:26:28.022Z,17.60
2018-01-04T23:28:55.836Z,17.60
2018-01-04T23:31:23.624Z,17.60
2018-01-04T23:33:51.981Z,17.60
2018-01-04T23:36:19.850Z,17.60
2018-01-04T23:38:47.723Z,17.60
2018-01-04T23:41:15.614Z,17.50
2018-01-04T23:43:43.487Z,17.60
2018-01-04T23:46:11.480Z,17.50
2018-01-04T23:48:39.500Z,17.50
2018-01-04T23:51:07.441Z,17.50
2018-01-04T23:53:35.356Z,17.50
2018-01-04T23:56:03.213Z,17.50
2018-01-04T23:58:31.197Z,17.50
